G.bellini — IKGF — position and weather

sailwx.info

Track history (hours):
 
Tides and Currents Weather Stations Pressure Air Temp Water Temp Dewpoint Dewpoint Depression Visibility Wind Speed Wind Dir Waves Ship Positions

G.bellini

Last reported at 2014-Oct-21 17:04 UTC. Time now 2014-Oct-21 21:45 UTC.
Position N 42°54' E 010°33'.

Length 72 m; draft 3.6 m.

Type: Ship. MMSI: 247041900.

Date/timePositionNaut miles runAvg speedWind from/ knotsBaromVisibWave heightAir tempDewpointWater temp
2014-Oct-21 17:04N 42°54' E 010°33'11 3.1
2014-Oct-21 13:27N 42°43' E 010°27'11 2.2
2014-Oct-21 08:33N 42°38' E 010°14'2210.9
2014-Oct-21 06:31N 42°55' E 010°33'1 0.0
2014-Oct-19 17:16N 42°56' E 010°33'8 7.2
2014-Oct-19 16:09N 42°49' E 010°27'1 0.1
2014-Oct-19 10:33N 42°49' E 010°26'8 4.1
2014-Oct-19 08:33N 42°56' E 010°34'2 0.8
2014-Oct-19 06:33N 42°54' E 010°32'1 1.3
2014-Oct-19 05:33N 42°55' E 010°34'8 7.5
2014-Oct-19 04:33N 42°49' E 010°27'8 0.7
2014-Oct-18 17:16N 42°56' E 010°33'9 7.6
2014-Oct-18 16:09N 42°49' E 010°26'6 0.2
2014-Oct-17 04:07N 42°54' E 010°32'7 0.2
2014-Oct-15 16:10N 42°49' E 010°27'5 0.2
2014-Oct-14 13:28N 42°43' E 010°27'10 2.0
2014-Oct-14 08:33N 42°39' E 010°15'  
Track history (hours):
 
Tides and Currents Weather Stations Pressure Air Temp Water Temp Dewpoint Dewpoint Depression Visibility Wind Speed Wind Dir Waves Ship Positions

G.bellini

Last reported at 2014-Oct-21 17:04 UTC. Time now 2014-Oct-21 21:45 UTC.
Position N 42°54' E 010°33'.

Length 72 m; draft 3.6 m.

Type: Ship. MMSI: 247041900.

Date/timePositionNaut miles runAvg speedWind from/ knotsBaromVisibWave heightAir tempDewpointWater temp
2014-Oct-21 17:04N 42°54' E 010°33'11 3.1
2014-Oct-21 13:27N 42°43' E 010°27'11 2.2
2014-Oct-21 08:33N 42°38' E 010°14'2210.9
2014-Oct-21 06:31N 42°55' E 010°33'1 0.0
2014-Oct-19 17:16N 42°56' E 010°33'8 7.2
2014-Oct-19 16:09N 42°49' E 010°27'1 0.1
2014-Oct-19 10:33N 42°49' E 010°26'8 4.1
2014-Oct-19 08:33N 42°56' E 010°34'2 0.8
2014-Oct-19 06:33N 42°54' E 010°32'1 1.3
2014-Oct-19 05:33N 42°55' E 010°34'8 7.5
2014-Oct-19 04:33N 42°49' E 010°27'8 0.7
2014-Oct-18 17:16N 42°56' E 010°33'9 7.6
2014-Oct-18 16:09N 42°49' E 010°26'6 0.2
2014-Oct-17 04:07N 42°54' E 010°32'7 0.2
2014-Oct-15 16:10N 42°49' E 010°27'5 0.2
2014-Oct-14 13:28N 42°43' E 010°27'10 2.0
2014-Oct-14 08:33N 42°39' E 010°15'  

Dump ship's entire track history